createdAt,value
2018-05-24T00:01:20.096Z,15.70
2018-05-24T00:03:47.567Z,15.70
2018-05-24T00:06:15.828Z,15.70
2018-05-24T00:08:44.806Z,15.70
2018-05-24T00:11:12.979Z,15.60
2018-05-24T00:13:41.258Z,15.60
2018-05-24T00:16:08.835Z,15.60
2018-05-24T00:18:37.092Z,15.50
2018-05-24T00:21:05.427Z,15.40
2018-05-24T00:23:32.908Z,15.40
2018-05-24T00:26:00.399Z,15.40
2018-05-24T00:28:28.923Z,15.10
2018-05-24T00:30:56.439Z,15.10
2018-05-24T00:33:24.679Z,14.80
2018-05-24T00:35:52.157Z,14.80
2018-05-24T00:38:19.729Z,14.80
2018-05-24T00:40:47.972Z,14.70
2018-05-24T00:43:15.464Z,14.70
2018-05-24T00:45:43.700Z,14.80
2018-05-24T00:48:11.443Z,14.80
2018-05-24T00:50:38.933Z,14.80
2018-05-24T00:53:06.411Z,14.70
2018-05-24T00:55:40.659Z,14.80
2018-05-24T00:58:08.309Z,14.70
2018-05-24T01:00:35.717Z,14.70
2018-05-24T01:03:03.204Z,14.80
2018-05-24T01:05:31.482Z,15.00
2018-05-24T01:07:59.739Z,15.00
2018-05-24T01:10:27.220Z,15.00
2018-05-24T01:12:55.491Z,15.10
2018-05-24T01:15:23.732Z,15.20
2018-05-24T01:17:51.210Z,15.10
2018-05-24T01:20:18.704Z,15.20
2018-05-24T01:22:46.179Z,15.30
2018-05-24T01:25:13.667Z,15.30
2018-05-24T01:27:41.253Z,15.30
2018-05-24T01:30:09.780Z,15.10
2018-05-24T01:32:37.259Z,15.10
2018-05-24T01:35:04.737Z,15.10
2018-05-24T01:37:44.036Z,15.20
2018-05-24T01:40:11.736Z,15.10
2018-05-24T01:42:39.241Z,15.10
2018-05-24T01:45:06.716Z,15.00
2018-05-24T01:47:34.474Z,15.00
2018-05-24T01:50:02.231Z,15.00
2018-05-24T01:52:29.703Z,15.00
2018-05-24T01:54:57.419Z,14.90
2018-05-24T01:57:25.660Z,14.90
2018-05-24T01:59:53.220Z,14.80
2018-05-24T02:02:20.700Z,14.80
2018-05-24T02:04:48.984Z,14.80
2018-05-24T02:07:17.247Z,14.90
2018-05-24T02:09:45.492Z,15.00
2018-05-24T02:12:12.984Z,15.00
2018-05-24T02:14:41.228Z,15.10
2018-05-24T02:17:08.968Z,15.10
2018-05-24T02:19:36.484Z,15.10
2018-05-24T02:22:05.010Z,15.20
2018-05-24T02:24:32.507Z,15.10
2018-05-24T02:26:59.979Z,15.20
2018-05-24T02:29:28.252Z,15.20
2018-05-24T02:31:56.780Z,15.10
2018-05-24T02:34:24.255Z,15.10
2018-05-24T02:36:51.752Z,15.10
2018-05-24T02:39:19.997Z,15.00
2018-05-24T02:41:47.732Z,15.00
2018-05-24T02:44:15.228Z,15.00
2018-05-24T02:46:42.732Z,15.00
2018-05-24T02:49:10.228Z,14.90
2018-05-24T02:51:37.704Z,14.80
2018-05-24T02:54:05.276Z,14.90
2018-05-24T02:56:33.552Z,14.80
2018-05-24T02:59:01.800Z,14.70
2018-05-24T03:01:29.295Z,14.70
2018-05-24T03:03:57.540Z,14.80
2018-05-24T03:06:25.024Z,14.80
2018-05-24T03:08:53.279Z,14.70
2018-05-24T03:11:20.765Z,14.70
2018-05-24T03:13:49.027Z,14.70
2018-05-24T03:16:17.276Z,14.70
2018-05-24T03:18:44.752Z,14.70
2018-05-24T03:21:12.244Z,14.60
2018-05-24T03:23:39.776Z,14.70
2018-05-24T03:26:08.036Z,14.90
2018-05-24T03:28:35.515Z,14.80
2018-05-24T03:31:04.031Z,14.90
2018-05-24T03:33:31.536Z,14.90
2018-05-24T03:36:00.542Z,14.90
2018-05-24T03:38:28.804Z,14.90
2018-05-24T03:40:56.371Z,14.90
2018-05-24T03:43:25.372Z,15.00
2018-05-24T03:45:53.672Z,15.00
2018-05-24T03:48:21.424Z,15.00
2018-05-24T03:50:48.915Z,14.90
2018-05-24T03:53:16.392Z,14.90
2018-05-24T03:55:44.128Z,14.90
2018-05-24T03:58:11.608Z,14.90
2018-05-24T04:00:51.740Z,15.00
2018-05-24T04:03:31.047Z,15.00
2018-05-24T04:05:58.772Z,15.00
2018-05-24T04:08:26.247Z,15.00
2018-05-24T04:10:55.084Z,15.10
2018-05-24T04:13:22.578Z,15.00
2018-05-24T04:15:50.304Z,15.00
2018-05-24T04:18:17.812Z,15.00
2018-05-24T04:20:45.314Z,15.00
2018-05-24T04:23:12.874Z,15.10
2018-05-24T04:25:40.291Z,15.20
2018-05-24T04:28:08.535Z,15.20
2018-05-24T04:30:36.126Z,15.20
2018-05-24T04:33:04.659Z,15.30
2018-05-24T04:35:32.136Z,15.30
2018-05-24T04:37:59.624Z,15.40
2018-05-24T04:40:29.207Z,15.50
2018-05-24T04:42:56.892Z,15.40
2018-05-24T04:45:25.135Z,15.50
2018-05-24T04:47:52.879Z,15.50
2018-05-24T04:50:20.367Z,15.50
2018-05-24T04:52:47.946Z,15.50
2018-05-24T04:55:16.211Z,15.50
2018-05-24T04:57:44.465Z,15.60
2018-05-24T05:00:11.946Z,15.60
2018-05-24T05:02:39.512Z,15.70
2018-05-24T05:05:07.759Z,15.70
2018-05-24T05:07:35.252Z,15.70
2018-05-24T05:10:03.487Z,15.60
2018-05-24T05:12:31.227Z,15.60
2018-05-24T05:14:58.755Z,15.60
2018-05-24T05:17:26.236Z,15.70
2018-05-24T05:19:54.007Z,15.70
2018-05-24T05:22:21.768Z,15.70
2018-05-24T05:24:49.244Z,15.80
2018-05-24T05:27:16.731Z,15.80
2018-05-24T05:29:44.300Z,15.90
2018-05-24T05:32:12.571Z,16.00
2018-05-24T05:34:40.140Z,15.90
2018-05-24T05:37:08.379Z,16.10
2018-05-24T05:39:35.872Z,16.10
2018-05-24T05:42:04.144Z,15.70
2018-05-24T05:44:32.426Z,15.60
2018-05-24T05:47:00.667Z,15.50
2018-05-24T05:49:28.139Z,15.50
2018-05-24T05:51:55.807Z,15.60
2018-05-24T05:54:23.277Z,15.90
2018-05-24T05:56:51.540Z,16.10
2018-05-24T05:59:19.253Z,16.00
2018-05-24T06:01:46.774Z,16.20
2018-05-24T06:04:15.037Z,16.30
2018-05-24T06:06:42.604Z,16.20
2018-05-24T06:09:11.341Z,16.20
2018-05-24T06:11:38.825Z,16.20
2018-05-24T06:14:07.068Z,16.20
2018-05-24T06:16:34.558Z,16.20
2018-05-24T06:19:02.106Z,16.30
2018-05-24T06:21:30.321Z,16.50
2018-05-24T06:23:58.564Z,16.60
2018-05-24T06:26:26.083Z,16.60
2018-05-24T06:28:54.308Z,16.70
2018-05-24T06:31:21.783Z,16.70
2018-05-24T06:33:50.036Z,16.80
2018-05-24T06:36:17.615Z,16.80
2018-05-24T06:38:45.888Z,17.00
2018-05-24T06:41:14.411Z,17.10
2018-05-24T06:43:42.175Z,17.10
2018-05-24T06:46:09.668Z,17.10
2018-05-24T06:48:37.404Z,17.20
2018-05-24T06:51:04.903Z,17.30
2018-05-24T06:53:32.383Z,17.40
2018-05-24T06:56:00.621Z,17.50
2018-05-24T06:58:28.109Z,17.50
2018-05-24T07:00:56.352Z,17.40
2018-05-24T07:03:24.184Z,17.40
2018-05-24T07:05:52.010Z,17.40
2018-05-24T07:08:19.715Z,17.40
2018-05-24T07:10:47.476Z,17.40
2018-05-24T07:13:14.952Z,17.40
2018-05-24T07:15:42.444Z,17.50
2018-05-24T07:18:10.688Z,17.70
2018-05-24T07:20:38.163Z,17.60
2018-05-24T07:23:05.659Z,17.80
2018-05-24T07:25:33.136Z,17.70
2018-05-24T07:28:00.652Z,18.00
2018-05-24T07:30:29.176Z,18.00
2018-05-24T07:32:56.655Z,18.00
2018-05-24T07:35:24.152Z,18.20
2018-05-24T07:37:52.455Z,18.60
2018-05-24T07:40:19.984Z,18.60
2018-05-24T07:42:48.221Z,18.70
2018-05-24T07:45:15.705Z,18.70
2018-05-24T07:47:43.195Z,18.70
2018-05-24T07:50:10.674Z,18.60
2018-05-24T07:52:38.168Z,18.70
2018-05-24T07:55:05.643Z,18.80
2018-05-24T07:57:33.920Z,19.10
2018-05-24T08:00:02.176Z,19.10
2018-05-24T08:02:29.755Z,19.10
2018-05-24T08:04:58.013Z,19.60
2018-05-24T08:07:25.495Z,19.50
2018-05-24T08:09:53.734Z,20.00
2018-05-24T08:12:21.468Z,20.00
2018-05-24T08:14:48.969Z,20.30
2018-05-24T08:17:16.467Z,20.40
2018-05-24T08:19:44.000Z,20.60
2018-05-24T08:22:12.244Z,22.80
2018-05-24T08:24:39.735Z,22.80
2018-05-24T08:27:07.980Z,24.20
2018-05-24T08:29:35.564Z,24.10
2018-05-24T08:32:03.807Z,23.40
2018-05-24T08:34:31.280Z,23.40
2018-05-24T08:36:58.772Z,23.30
2018-05-24T08:39:27.012Z,23.50
2018-05-24T08:41:55.271Z,24.20
2018-05-24T08:44:23.269Z,24.10
2018-05-24T08:46:50.836Z,24.50
2018-05-24T08:49:19.112Z,26.30
2018-05-24T08:51:47.351Z,26.50
2018-05-24T08:54:14.843Z,26.50
2018-05-24T08:56:43.227Z,27.20
2018-05-24T08:59:11.748Z,27.10
2018-05-24T09:01:39.518Z,27.10
2018-05-24T09:04:07.000Z,26.90
2018-05-24T09:06:34.476Z,26.50
2018-05-24T09:09:02.356Z,26.00
2018-05-24T09:11:29.784Z,25.80
2018-05-24T09:13:57.367Z,26.10
2018-05-24T09:16:25.888Z,25.70
2018-05-24T09:18:53.404Z,25.70
2018-05-24T09:21:21.663Z,25.40
2018-05-24T09:23:49.236Z,25.40
2018-05-24T09:26:17.496Z,25.90
2018-05-24T09:28:45.223Z,25.80
2018-05-24T09:31:12.983Z,25.60
2018-05-24T09:33:40.476Z,25.40
2018-05-24T09:36:07.953Z,25.90
2018-05-24T09:38:36.231Z,27.20
2018-05-24T09:41:04.472Z,26.90
2018-05-24T09:43:31.944Z,26.80
2018-05-24T09:45:59.440Z,26.40
2018-05-24T09:48:26.920Z,26.40
2018-05-24T09:50:54.687Z,26.40
2018-05-24T09:53:22.448Z,26.40
2018-05-24T09:55:49.948Z,26.20
2018-05-24T09:58:17.776Z,26.10
2018-05-24T10:00:45.535Z,26.30
2018-05-24T10:03:13.028Z,26.40
2018-05-24T10:05:40.503Z,25.70
2018-05-24T10:08:08.748Z,24.60
2018-05-24T10:10:36.302Z,24.60
2018-05-24T10:13:04.048Z,24.90
2018-05-24T10:15:31.540Z,25.20
2018-05-24T10:17:59.121Z,25.40
2018-05-24T10:20:27.648Z,25.40
2018-05-24T10:22:55.136Z,25.40
2018-05-24T10:25:24.237Z,25.90
2018-05-24T10:27:51.959Z,25.90
2018-05-24T10:30:19.496Z,26.10
2018-05-24T10:32:47.036Z,26.20
2018-05-24T10:35:15.304Z,26.10
2018-05-24T10:37:42.780Z,26.10
2018-05-24T10:40:11.052Z,26.30
2018-05-24T10:42:39.322Z,26.40
2018-05-24T10:45:07.605Z,26.70
2018-05-24T10:47:35.403Z,26.70
2018-05-24T10:50:02.920Z,26.60
2018-05-24T10:52:31.179Z,26.10
2018-05-24T10:54:58.652Z,26.10
2018-05-24T10:57:26.896Z,25.90
2018-05-24T10:59:54.383Z,25.80
2018-05-24T11:02:22.628Z,26.40
2018-05-24T11:04:50.363Z,26.40
2018-05-24T11:07:17.860Z,26.60
2018-05-24T11:09:45.351Z,26.80
2018-05-24T11:12:13.593Z,26.70
2018-05-24T11:14:41.074Z,26.70
2018-05-24T11:17:09.332Z,26.80
2018-05-24T11:19:36.812Z,26.70
2018-05-24T11:22:05.076Z,26.70
2018-05-24T11:24:33.320Z,26.60
2018-05-24T11:27:00.836Z,26.60
2018-05-24T11:29:28.345Z,26.50
2018-05-24T11:31:55.912Z,26.40
2018-05-24T11:34:23.375Z,26.20
2018-05-24T11:36:52.576Z,26.50
2018-05-24T11:39:20.816Z,26.90
2018-05-24T11:41:48.308Z,26.90
2018-05-24T11:44:15.784Z,27.10
2018-05-24T11:46:44.267Z,27.30
2018-05-24T11:49:11.807Z,27.40
2018-05-24T11:51:40.351Z,27.60
2018-05-24T11:54:08.099Z,27.50
2018-05-24T11:56:35.580Z,26.70
2018-05-24T11:59:03.069Z,26.40
2018-05-24T12:01:31.315Z,26.50
2018-05-24T12:03:58.820Z,26.50
2018-05-24T12:06:26.368Z,26.20
2018-05-24T12:08:54.648Z,26.00
2018-05-24T12:11:23.163Z,25.90
2018-05-24T12:13:50.652Z,26.00
2018-05-24T12:16:18.127Z,25.70
2018-05-24T12:18:46.387Z,25.00
2018-05-24T12:21:13.967Z,24.90
2018-05-24T12:23:42.528Z,24.60
2018-05-24T12:26:09.995Z,24.50
2018-05-24T12:28:37.477Z,24.40
2018-05-24T12:31:05.989Z,23.80
2018-05-24T12:33:33.464Z,23.80
2018-05-24T12:36:00.944Z,23.80
2018-05-24T12:38:28.435Z,23.80
2018-05-24T12:40:55.916Z,23.80
2018-05-24T12:43:23.408Z,23.40
2018-05-24T12:45:51.142Z,23.10
2018-05-24T12:48:18.643Z,22.90
2018-05-24T12:50:46.120Z,22.60
2018-05-24T12:53:14.364Z,22.10
2018-05-24T12:55:41.860Z,22.00
2018-05-24T12:58:09.337Z,21.80
2018-05-24T13:00:36.831Z,21.80
2018-05-24T13:03:04.307Z,21.60
2018-05-24T13:05:31.780Z,21.40
2018-05-24T13:08:00.295Z,20.90
2018-05-24T13:10:28.062Z,20.80
2018-05-24T13:12:55.556Z,20.40
2018-05-24T13:15:23.031Z,20.00
2018-05-24T13:17:51.555Z,19.50
2018-05-24T13:20:19.062Z,19.50
2018-05-24T13:22:46.632Z,19.40
2018-05-24T13:25:14.892Z,19.10
2018-05-24T13:27:42.379Z,19.10
2018-05-24T13:30:10.888Z,19.00
2018-05-24T13:32:38.379Z,19.00
2018-05-24T13:35:05.851Z,19.10
2018-05-24T13:37:33.348Z,19.30
2018-05-24T13:40:00.872Z,19.50
2018-05-24T13:42:29.119Z,20.00
2018-05-24T13:44:56.856Z,20.00
2018-05-24T13:47:24.372Z,20.20
2018-05-24T13:49:52.635Z,20.30
2018-05-24T13:52:20.108Z,20.30
2018-05-24T13:54:48.347Z,20.40
2018-05-24T13:57:15.936Z,20.40
2018-05-24T13:59:44.463Z,20.50
2018-05-24T14:02:11.956Z,20.50
2018-05-24T14:04:39.440Z,20.90
2018-05-24T14:07:07.701Z,21.20
2018-05-24T14:09:35.524Z,21.20
2018-05-24T14:12:03.283Z,21.50
2018-05-24T14:14:30.775Z,21.60
2018-05-24T14:16:58.252Z,21.70
2018-05-24T14:19:26.512Z,21.70
2018-05-24T14:21:54.092Z,21.70
2018-05-24T14:24:22.355Z,21.70
2018-05-24T14:26:49.841Z,21.70
2018-05-24T14:29:17.544Z,21.60
2018-05-24T14:31:45.035Z,21.60
2018-05-24T14:34:13.275Z,21.60
2018-05-24T14:36:41.022Z,21.60
2018-05-24T14:39:08.495Z,21.60
2018-05-24T14:41:35.976Z,21.60
2018-05-24T14:44:03.464Z,21.80
2018-05-24T14:46:31.703Z,21.70
2018-05-24T14:48:59.291Z,21.70
2018-05-24T14:51:27.531Z,21.70
2018-05-24T14:53:55.004Z,21.70
2018-05-24T14:56:22.496Z,21.70
2018-05-24T14:58:49.975Z,21.80
2018-05-24T15:01:17.491Z,21.70
2018-05-24T15:03:45.732Z,21.70
2018-05-24T15:06:13.227Z,21.70
2018-05-24T15:08:41.489Z,21.70
2018-05-24T15:11:09.888Z,21.70
2018-05-24T15:13:49.935Z,21.70
2018-05-24T15:16:18.190Z,21.80
2018-05-24T15:18:45.673Z,21.80
2018-05-24T15:21:13.924Z,21.60
2018-05-24T15:23:41.419Z,21.60
2018-05-24T15:26:09.209Z,21.60
2018-05-24T15:28:36.716Z,21.60
2018-05-24T15:31:06.061Z,21.70
2018-05-24T15:33:34.080Z,21.70
2018-05-24T15:36:01.716Z,21.70
2018-05-24T15:38:30.007Z,21.70
2018-05-24T15:40:58.286Z,21.70
2018-05-24T15:43:25.867Z,21.70
2018-05-24T15:45:54.107Z,21.70
2018-05-24T15:48:21.587Z,21.70
2018-05-24T15:50:49.082Z,21.80
2018-05-24T15:53:16.564Z,21.70
2018-05-24T15:55:44.063Z,21.70
2018-05-24T15:58:12.339Z,21.70
2018-05-24T16:00:40.584Z,21.60
2018-05-24T16:03:08.091Z,21.60
2018-05-24T16:05:35.571Z,21.60
2018-05-24T16:08:03.068Z,21.50
2018-05-24T16:10:30.539Z,21.30
2018-05-24T16:12:58.027Z,21.40
2018-05-24T16:15:25.524Z,21.40
2018-05-24T16:17:53.005Z,21.40
2018-05-24T16:20:20.505Z,21.30
2018-05-24T16:22:47.983Z,21.30
2018-05-24T16:25:15.495Z,21.20
2018-05-24T16:27:44.035Z,21.20
2018-05-24T16:30:11.536Z,21.20
2018-05-24T16:32:39.800Z,21.20
2018-05-24T16:35:07.271Z,21.10
2018-05-24T16:37:35.515Z,21.00
2018-05-24T16:40:03.004Z,21.00
2018-05-24T16:42:31.247Z,21.00
2018-05-24T16:44:58.748Z,21.00
2018-05-24T16:47:26.228Z,21.00
2018-05-24T16:49:53.716Z,20.90
2018-05-24T16:52:21.205Z,20.90
2018-05-24T16:54:49.463Z,20.90
2018-05-24T16:57:16.964Z,20.90
2018-05-24T16:59:44.447Z,20.90
2018-05-24T17:02:11.957Z,21.00
2018-05-24T17:04:40.212Z,21.00
2018-05-24T17:07:07.789Z,21.00
2018-05-24T17:09:36.303Z,21.20
2018-05-24T17:12:04.069Z,21.20
2018-05-24T17:14:31.764Z,21.30
2018-05-24T17:16:59.271Z,21.40
2018-05-24T17:19:26.749Z,21.50
2018-05-24T17:21:54.251Z,21.50
2018-05-24T17:24:21.724Z,21.50
2018-05-24T17:26:49.967Z,21.50
2018-05-24T17:29:17.704Z,21.40
2018-05-24T17:31:45.222Z,21.50
2018-05-24T17:34:13.527Z,21.50
2018-05-24T17:36:41.008Z,21.40
2018-05-24T17:39:08.770Z,21.30
2018-05-24T17:41:36.520Z,21.40
2018-05-24T17:44:04.005Z,21.30
2018-05-24T17:46:31.492Z,21.30
2018-05-24T17:48:59.805Z,21.30
2018-05-24T17:51:27.375Z,21.20
2018-05-24T17:53:54.875Z,21.30
2018-05-24T17:56:22.588Z,21.20
2018-05-24T17:58:50.104Z,21.10
2018-05-24T18:01:18.660Z,21.10
2018-05-24T18:03:46.286Z,21.00
2018-05-24T18:06:14.391Z,20.80
2018-05-24T18:08:42.124Z,20.50
2018-05-24T18:11:09.635Z,20.50
2018-05-24T18:13:37.998Z,20.30
2018-05-24T18:16:05.480Z,20.30
2018-05-24T18:18:33.742Z,19.90
2018-05-24T18:21:02.201Z,19.50
2018-05-24T18:23:29.699Z,19.50
2018-05-24T18:25:57.968Z,19.10
2018-05-24T18:28:26.482Z,18.90
2018-05-24T18:30:53.988Z,18.90
2018-05-24T18:33:21.480Z,18.80
2018-05-24T18:35:49.267Z,18.80
2018-05-24T18:38:17.397Z,18.70
2018-05-24T18:40:45.925Z,18.60
2018-05-24T18:43:13.421Z,18.60
2018-05-24T18:45:40.908Z,18.50
2018-05-24T18:48:08.425Z,18.40
2018-05-24T18:50:36.008Z,18.40
2018-05-24T18:53:04.279Z,18.30
2018-05-24T18:55:31.784Z,18.30
2018-05-24T18:57:59.308Z,18.30
2018-05-24T19:00:27.587Z,18.30
2018-05-24T19:02:55.844Z,18.30
2018-05-24T19:05:23.315Z,18.30
2018-05-24T19:07:51.572Z,18.40
2018-05-24T19:10:19.144Z,18.30
2018-05-24T19:12:47.490Z,18.20
2018-05-24T19:15:14.980Z,18.20
2018-05-24T19:17:43.255Z,18.10
2018-05-24T19:20:11.524Z,17.90
2018-05-24T19:22:39.000Z,17.90
2018-05-24T19:25:07.267Z,17.90
2018-05-24T19:27:35.523Z,17.90
2018-05-24T19:30:03.352Z,17.80
2018-05-24T19:32:30.843Z,17.90
2018-05-24T19:34:58.327Z,17.90
2018-05-24T19:37:26.584Z,17.80
2018-05-24T19:39:54.299Z,17.80
2018-05-24T19:42:22.063Z,17.80
2018-05-24T19:44:49.588Z,17.80
2018-05-24T19:47:18.104Z,17.30
2018-05-24T19:49:45.599Z,17.30
2018-05-24T19:52:13.199Z,17.30
2018-05-24T19:54:40.731Z,17.30
2018-05-24T19:57:08.305Z,17.30
2018-05-24T19:59:36.569Z,17.30
2018-05-24T20:02:04.827Z,17.20
2018-05-24T20:04:33.811Z,17.20
2018-05-24T20:07:01.299Z,17.20
2018-05-24T20:09:29.540Z,17.30
2018-05-24T20:11:57.280Z,17.30
2018-05-24T20:14:24.771Z,17.40
2018-05-24T20:16:52.351Z,17.30
2018-05-24T20:19:20.600Z,16.90
2018-05-24T20:21:48.187Z,16.90
2018-05-24T20:24:16.432Z,16.80
2018-05-24T20:26:43.920Z,16.80
2018-05-24T20:29:12.160Z,16.80
2018-05-24T20:31:39.976Z,16.80
2018-05-24T20:34:07.456Z,16.80
2018-05-24T20:36:35.224Z,16.50
2018-05-24T20:39:02.706Z,16.40
2018-05-24T20:41:30.212Z,16.50
2018-05-24T20:43:57.692Z,16.50
2018-05-24T20:46:25.188Z,16.30
2018-05-24T20:48:52.663Z,16.20
2018-05-24T20:51:20.226Z,16.10
2018-05-24T20:53:48.472Z,16.00
2018-05-24T20:56:16.017Z,16.00
2018-05-24T20:58:43.520Z,16.10
2018-05-24T21:01:11.783Z,16.10
2018-05-24T21:03:39.260Z,16.10
2018-05-24T21:06:07.505Z,16.10
2018-05-24T21:08:35.006Z,16.00
2018-05-24T21:11:02.484Z,16.00
2018-05-24T21:13:29.991Z,15.90
2018-05-24T21:15:58.242Z,15.70
2018-05-24T21:18:25.715Z,15.70
2018-05-24T21:20:53.207Z,15.60
2018-05-24T21:23:20.680Z,15.40
2018-05-24T21:25:48.176Z,15.40
2018-05-24T21:28:15.653Z,15.40
2018-05-24T21:30:43.124Z,15.40
2018-05-24T21:33:11.377Z,15.30
2018-05-24T21:35:38.952Z,15.30
2018-05-24T21:38:07.216Z,15.30
2018-05-24T21:40:34.695Z,15.30
2018-05-24T21:43:02.940Z,15.40
2018-05-24T21:45:31.492Z,15.30
2018-05-24T21:47:58.967Z,15.30
2018-05-24T21:50:26.460Z,15.30
2018-05-24T21:52:54.707Z,15.20
2018-05-24T21:55:22.200Z,15.20
2018-05-24T21:57:50.456Z,15.10
2018-05-24T22:00:18.712Z,15.00
2018-05-24T22:02:46.201Z,15.00
2018-05-24T22:05:14.719Z,15.00
2018-05-24T22:07:42.484Z,15.00
2018-05-24T22:10:09.960Z,15.00
2018-05-24T22:12:37.655Z,15.00
2018-05-24T22:15:05.143Z,15.00
2018-05-24T22:17:32.615Z,15.00
2018-05-24T22:20:00.108Z,15.00
2018-05-24T22:22:27.580Z,14.90
2018-05-24T22:24:55.055Z,14.90
2018-05-24T22:27:23.779Z,14.50
2018-05-24T22:29:51.255Z,14.50
2018-05-24T22:32:18.743Z,14.40
2018-05-24T22:34:46.220Z,14.40
2018-05-24T22:37:13.776Z,14.40
2018-05-24T22:39:42.288Z,14.10
2018-05-24T22:42:09.759Z,14.10
2018-05-24T22:44:37.277Z,14.20
2018-05-24T22:47:04.820Z,14.30
2018-05-24T22:49:33.064Z,14.40
2018-05-24T22:52:00.556Z,14.40
2018-05-24T22:54:29.011Z,14.50
2018-05-24T22:56:56.504Z,14.40
2018-05-24T22:59:24.805Z,14.40
2018-05-24T23:01:53.044Z,14.40
2018-05-24T23:04:21.357Z,14.40
2018-05-24T23:06:49.060Z,14.30
2018-05-24T23:09:17.352Z,14.40
2018-05-24T23:11:45.605Z,14.30
2018-05-24T23:14:13.100Z,14.30
2018-05-24T23:16:41.368Z,14.30
2018-05-24T23:19:09.887Z,14.20
2018-05-24T23:21:37.386Z,14.20
2018-05-24T23:24:05.627Z,14.10
2018-05-24T23:26:33.119Z,14.10
2018-05-24T23:29:01.364Z,14.10
2018-05-24T23:31:28.855Z,14.00
2018-05-24T23:33:56.328Z,14.10
2018-05-24T23:36:24.600Z,14.10
2018-05-24T23:38:52.859Z,14.10
2018-05-24T23:41:20.332Z,14.10
2018-05-24T23:43:48.595Z,14.10
2018-05-24T23:46:16.175Z,14.00
2018-05-24T23:48:44.696Z,13.70
2018-05-24T23:51:12.208Z,13.70
2018-05-24T23:53:40.480Z,13.70
2018-05-24T23:56:08.741Z,13.60
2018-05-24T23:58:36.323Z,13.60
